createdAt,value
2017-09-19T00:01:10.118Z,72.90
2017-09-19T00:03:37.671Z,72.80
2017-09-19T00:06:05.285Z,72.80
2017-09-19T00:08:32.830Z,73.00
2017-09-19T00:11:00.868Z,72.90
2017-09-19T00:13:28.463Z,73.70
2017-09-19T00:15:56.025Z,73.10
2017-09-19T00:18:24.404Z,73.20
2017-09-19T00:20:51.981Z,73.20
2017-09-19T00:23:20.018Z,73.20
2017-09-19T00:25:47.580Z,73.20
2017-09-19T00:28:15.151Z,73.20
2017-09-19T00:30:43.503Z,73.60
2017-09-19T00:33:11.063Z,73.50
2017-09-19T00:35:39.134Z,73.70
2017-09-19T00:38:06.713Z,73.80
2017-09-19T00:40:34.296Z,74.70
2017-09-19T00:43:01.925Z,74.20
2017-09-19T00:45:29.544Z,74.20
2017-09-19T00:47:57.465Z,74.10
2017-09-19T00:50:25.023Z,74.10
2017-09-19T00:52:52.580Z,73.60
2017-09-19T00:55:20.237Z,74.10
2017-09-19T00:57:47.790Z,74.10
2017-09-19T01:00:15.787Z,74.10
2017-09-19T01:02:44.132Z,74.10
2017-09-19T01:05:11.807Z,74.10
2017-09-19T01:07:39.419Z,74.10
2017-09-19T01:10:06.978Z,74.10
2017-09-19T01:12:34.865Z,74.10
2017-09-19T01:15:02.401Z,74.10
2017-09-19T01:17:29.949Z,74.10
2017-09-19T01:19:57.574Z,74.10
2017-09-19T01:22:25.171Z,74.10
2017-09-19T01:24:53.009Z,74.10
2017-09-19T01:27:21.332Z,74.20
2017-09-19T01:29:48.887Z,74.10
2017-09-19T01:32:16.439Z,74.10
2017-09-19T01:34:43.973Z,74.10
2017-09-19T01:37:11.947Z,74.10
2017-09-19T01:39:40.998Z,74.10
2017-09-19T01:42:08.694Z,74.00
2017-09-19T01:44:37.038Z,74.00
2017-09-19T01:47:04.617Z,74.50
2017-09-19T01:49:32.686Z,73.90
2017-09-19T01:52:00.231Z,73.90
2017-09-19T01:54:27.818Z,73.90
2017-09-19T01:56:56.162Z,73.90
2017-09-19T01:59:23.713Z,73.80
2017-09-19T02:01:51.787Z,73.90
2017-09-19T02:04:19.335Z,74.10
2017-09-19T02:06:46.955Z,74.00
2017-09-19T02:09:15.329Z,73.90
2017-09-19T02:11:42.912Z,73.90
2017-09-19T02:14:10.915Z,74.00
2017-09-19T02:16:38.554Z,73.80
2017-09-19T02:19:06.330Z,74.90
2017-09-19T02:21:34.083Z,75.00
2017-09-19T02:24:01.618Z,74.70
2017-09-19T02:26:30.455Z,75.00
2017-09-19T02:28:58.006Z,74.90
2017-09-19T02:31:25.565Z,74.60
2017-09-19T02:33:53.205Z,74.80
2017-09-19T02:36:20.777Z,75.00
2017-09-19T02:38:49.074Z,75.20
2017-09-19T02:41:16.626Z,75.10
2017-09-19T02:43:44.453Z,75.30
2017-09-19T02:46:12.262Z,75.00
2017-09-19T02:48:39.809Z,75.30
2017-09-19T02:51:07.706Z,75.30
2017-09-19T02:53:35.354Z,75.30
2017-09-19T02:56:02.909Z,75.30
2017-09-19T02:58:30.506Z,75.00
2017-09-19T03:00:58.904Z,75.80
2017-09-19T03:03:26.830Z,75.20
2017-09-19T03:05:54.373Z,75.30
2017-09-19T03:08:21.935Z,75.50
2017-09-19T03:10:49.501Z,75.60
2017-09-19T03:13:18.612Z,75.50
2017-09-19T03:15:46.567Z,75.50
2017-09-19T03:18:14.123Z,75.50
2017-09-19T03:20:42.552Z,75.30
2017-09-19T03:23:10.894Z,75.20
2017-09-19T03:25:38.454Z,75.10
2017-09-19T03:28:06.320Z,75.10
2017-09-19T03:30:33.889Z,75.30
2017-09-19T03:33:01.467Z,75.20
2017-09-19T03:35:29.854Z,75.40
2017-09-19T03:37:57.408Z,75.30
2017-09-19T03:40:26.082Z,75.00
2017-09-19T03:42:54.447Z,75.00
2017-09-19T03:45:22.031Z,75.00
2017-09-19T03:47:50.579Z,75.00
2017-09-19T03:50:18.155Z,74.90
2017-09-19T03:52:46.827Z,75.10
2017-09-19T03:55:14.451Z,75.10
2017-09-19T03:57:42.028Z,75.00
2017-09-19T04:00:09.611Z,75.20
2017-09-19T04:02:37.263Z,75.10
2017-09-19T04:05:05.977Z,75.90
2017-09-19T04:07:34.303Z,75.40
2017-09-19T04:10:01.840Z,75.40
2017-09-19T04:12:29.426Z,75.30
2017-09-19T04:14:57.007Z,75.40
2017-09-19T04:17:24.910Z,75.30
2017-09-19T04:19:53.258Z,75.40
2017-09-19T04:22:20.837Z,75.90
2017-09-19T04:24:49.204Z,75.60
2017-09-19T04:27:16.754Z,75.60
2017-09-19T04:29:44.623Z,75.80
2017-09-19T04:32:12.287Z,75.90
2017-09-19T04:34:39.856Z,75.90
2017-09-19T04:37:07.488Z,76.10
2017-09-19T04:39:35.076Z,75.80
2017-09-19T04:42:04.161Z,75.90
2017-09-19T04:44:31.720Z,76.10
2017-09-19T04:47:00.791Z,76.30
2017-09-19T04:49:28.366Z,76.30
2017-09-19T04:51:55.919Z,76.30
2017-09-19T04:54:23.926Z,76.50
2017-09-19T04:56:52.248Z,76.60
2017-09-19T04:59:19.832Z,76.60
2017-09-19T05:01:47.522Z,76.60
2017-09-19T05:04:15.852Z,76.80
2017-09-19T05:06:43.842Z,76.70
2017-09-19T05:09:11.419Z,76.70
2017-09-19T05:11:39.003Z,76.90
2017-09-19T05:14:06.620Z,77.10
2017-09-19T05:16:34.187Z,77.00
2017-09-19T05:19:02.148Z,77.00
2017-09-19T05:21:29.711Z,77.00
2017-09-19T05:23:57.262Z,77.10
2017-09-19T05:26:24.892Z,76.50
2017-09-19T05:28:52.444Z,76.20
2017-09-19T05:31:20.484Z,76.20
2017-09-19T05:33:48.830Z,76.00
2017-09-19T05:36:16.440Z,75.90
2017-09-19T05:38:44.046Z,76.00
2017-09-19T05:41:11.649Z,75.80
2017-09-19T05:43:39.620Z,75.40
2017-09-19T05:46:08.236Z,75.10
2017-09-19T05:48:35.827Z,75.00
2017-09-19T05:51:03.425Z,74.90
2017-09-19T05:53:31.838Z,74.60
2017-09-19T05:55:59.907Z,75.20
2017-09-19T05:58:27.561Z,74.60
2017-09-19T06:00:55.112Z,74.60
2017-09-19T06:03:22.728Z,73.80
2017-09-19T06:05:50.286Z,73.80
2017-09-19T06:08:18.242Z,73.80
2017-09-19T06:10:45.821Z,73.90
2017-09-19T06:13:13.376Z,74.00
2017-09-19T06:15:40.973Z,74.10
2017-09-19T06:18:08.554Z,74.10
2017-09-19T06:20:36.553Z,74.10
2017-09-19T06:23:04.131Z,74.00
2017-09-19T06:25:33.259Z,74.00
2017-09-19T06:28:00.866Z,74.00
2017-09-19T06:30:28.479Z,73.90
2017-09-19T06:32:57.159Z,74.10
2017-09-19T06:35:25.504Z,74.10
2017-09-19T06:37:53.141Z,74.00
2017-09-19T06:40:20.819Z,74.10
2017-09-19T06:42:48.615Z,74.10
2017-09-19T06:45:17.298Z,74.20
2017-09-19T06:47:45.857Z,74.30
2017-09-19T06:50:13.407Z,74.30
2017-09-19T06:52:41.069Z,74.40
2017-09-19T06:55:08.636Z,74.40
2017-09-19T06:57:36.631Z,74.20
2017-09-19T07:00:04.300Z,74.00
2017-09-19T07:02:32.790Z,74.00
2017-09-19T07:05:01.197Z,73.90
2017-09-19T07:07:28.800Z,73.90
2017-09-19T07:09:56.794Z,74.00
2017-09-19T07:12:25.113Z,73.80
2017-09-19T07:14:52.690Z,73.80
2017-09-19T07:17:20.277Z,73.90
2017-09-19T07:19:47.905Z,73.80
2017-09-19T07:22:15.792Z,73.90
2017-09-19T07:24:43.398Z,73.90
2017-09-19T07:27:11.010Z,73.90
2017-09-19T07:29:39.286Z,73.80
2017-09-19T07:32:06.861Z,73.90
2017-09-19T07:34:35.456Z,73.90
2017-09-19T07:37:03.800Z,73.90
2017-09-19T07:39:31.386Z,73.90
2017-09-19T07:41:59.755Z,74.20
2017-09-19T07:44:27.330Z,73.70
2017-09-19T07:46:56.000Z,73.70
2017-09-19T07:49:23.683Z,73.60
2017-09-19T07:51:52.020Z,73.10
2017-09-19T07:54:19.686Z,73.00
2017-09-19T07:56:47.235Z,73.00
2017-09-19T07:59:15.116Z,72.80
2017-09-19T08:01:42.672Z,72.80
2017-09-19T08:04:10.246Z,72.70
2017-09-19T08:06:37.939Z,72.50
2017-09-19T08:09:05.524Z,72.60
2017-09-19T08:11:33.423Z,72.20
2017-09-19T08:14:00.998Z,71.90
2017-09-19T08:16:28.570Z,72.00
2017-09-19T08:18:56.939Z,72.20
2017-09-19T08:21:24.543Z,72.10
2017-09-19T08:23:52.573Z,71.70
2017-09-19T08:26:20.919Z,71.30
2017-09-19T08:28:48.580Z,71.30
2017-09-19T08:31:16.202Z,71.10
2017-09-19T08:33:43.774Z,71.00
2017-09-19T08:36:11.667Z,70.70
2017-09-19T08:38:39.257Z,70.60
2017-09-19T08:41:06.819Z,70.70
2017-09-19T08:43:35.202Z,71.10
2017-09-19T08:46:02.772Z,70.40
2017-09-19T08:48:31.412Z,70.40
2017-09-19T08:50:58.995Z,70.40
2017-09-19T08:53:26.595Z,70.40
2017-09-19T08:55:54.230Z,70.20
2017-09-19T08:58:22.567Z,69.90
2017-09-19T09:00:50.518Z,69.90
2017-09-19T09:03:18.173Z,69.60
2017-09-19T09:05:45.740Z,69.40
2017-09-19T09:08:13.427Z,69.00
2017-09-19T09:10:41.010Z,69.10
2017-09-19T09:13:09.055Z,69.30
2017-09-19T09:15:36.827Z,69.40
2017-09-19T09:18:04.406Z,69.00
2017-09-19T09:20:32.040Z,68.60
2017-09-19T09:22:59.629Z,68.20
2017-09-19T09:25:27.649Z,68.20
2017-09-19T09:27:55.248Z,67.90
2017-09-19T09:30:22.828Z,67.90
2017-09-19T09:32:50.424Z,67.80
2017-09-19T09:35:17.970Z,67.70
2017-09-19T09:37:46.664Z,67.70
2017-09-19T09:40:14.227Z,67.70
2017-09-19T09:42:41.951Z,67.60
2017-09-19T09:45:09.539Z,67.40
2017-09-19T09:47:37.159Z,67.00
2017-09-19T09:50:05.034Z,66.90
2017-09-19T09:52:33.396Z,66.90
2017-09-19T09:55:00.987Z,66.90
2017-09-19T09:57:29.360Z,66.70
2017-09-19T09:59:57.019Z,66.60
2017-09-19T10:02:24.946Z,66.50
2017-09-19T10:04:52.511Z,66.10
2017-09-19T10:07:20.146Z,65.90
2017-09-19T10:09:48.568Z,65.80
2017-09-19T10:12:16.147Z,65.60
2017-09-19T10:14:43.992Z,65.20
2017-09-19T10:17:12.321Z,65.20
2017-09-19T10:19:39.875Z,65.20
2017-09-19T10:22:07.467Z,65.20
2017-09-19T10:24:35.008Z,65.30
2017-09-19T10:27:02.991Z,65.30
2017-09-19T10:29:30.605Z,65.30
2017-09-19T10:31:58.179Z,65.40
2017-09-19T10:34:25.838Z,65.40
2017-09-19T10:36:53.386Z,65.40
2017-09-19T10:39:21.302Z,65.50
2017-09-19T10:41:48.867Z,65.10
2017-09-19T10:44:16.604Z,65.70
2017-09-19T10:46:44.207Z,65.00
2017-09-19T10:49:11.788Z,65.20
2017-09-19T10:51:39.751Z,65.10
2017-09-19T10:54:07.328Z,65.30
2017-09-19T10:56:35.671Z,65.00
2017-09-19T10:59:04.764Z,65.10
2017-09-19T11:01:32.343Z,65.10
2017-09-19T11:04:00.396Z,65.20
2017-09-19T11:06:27.967Z,64.60
2017-09-19T11:08:55.518Z,63.90
2017-09-19T11:11:23.108Z,63.90
2017-09-19T11:13:50.667Z,64.00
2017-09-19T11:16:19.303Z,63.80
2017-09-19T11:18:46.876Z,63.80
2017-09-19T11:21:14.433Z,63.60
2017-09-19T11:23:42.075Z,63.60
2017-09-19T11:26:09.631Z,63.70
2017-09-19T11:28:37.648Z,63.50
2017-09-19T11:31:05.965Z,62.10
2017-09-19T11:33:33.637Z,62.50
2017-09-19T11:36:01.264Z,62.90
2017-09-19T11:38:28.824Z,62.60
2017-09-19T11:40:56.928Z,62.10
2017-09-19T11:43:24.471Z,61.90
2017-09-19T11:45:52.015Z,61.40
2017-09-19T11:48:19.611Z,61.50
2017-09-19T11:50:47.171Z,61.50
2017-09-19T11:53:15.058Z,61.60
2017-09-19T11:55:42.663Z,61.60
2017-09-19T11:58:10.210Z,61.60
2017-09-19T12:00:38.619Z,61.90
2017-09-19T12:03:06.203Z,61.30
2017-09-19T12:05:34.189Z,61.10
2017-09-19T12:08:01.799Z,61.90
2017-09-19T12:10:29.383Z,61.10
2017-09-19T12:12:57.028Z,61.80
2017-09-19T12:15:24.562Z,61.50
2017-09-19T12:17:52.494Z,61.10
2017-09-19T12:20:20.093Z,61.60
2017-09-19T12:22:47.650Z,60.90
2017-09-19T12:25:16.039Z,60.50
2017-09-19T12:27:43.646Z,60.50
2017-09-19T12:30:11.841Z,60.40
2017-09-19T12:32:39.422Z,60.80
2017-09-19T12:35:06.994Z,61.30
2017-09-19T12:37:34.625Z,61.20
2017-09-19T12:40:02.210Z,61.20
2017-09-19T12:42:30.134Z,61.20
2017-09-19T12:44:57.709Z,61.20
2017-09-19T12:47:26.764Z,61.10
2017-09-19T12:49:54.407Z,61.70
2017-09-19T12:52:22.058Z,61.20
2017-09-19T12:54:50.679Z,60.90
2017-09-19T12:57:18.252Z,61.00
2017-09-19T12:59:45.813Z,60.80
2017-09-19T13:02:13.442Z,60.30
2017-09-19T13:04:41.043Z,60.80
2017-09-19T13:07:09.006Z,61.20
2017-09-19T13:09:36.561Z,61.20
2017-09-19T13:12:04.120Z,61.20
2017-09-19T13:14:31.783Z,61.20
2017-09-19T13:16:59.372Z,61.10
2017-09-19T13:19:28.086Z,60.50
2017-09-19T13:21:55.672Z,60.50
2017-09-19T13:24:23.437Z,60.40
2017-09-19T13:26:51.331Z,60.60
2017-09-19T13:29:18.935Z,60.70
2017-09-19T13:31:58.584Z,60.40
2017-09-19T13:34:26.208Z,60.10
2017-09-19T13:36:53.751Z,60.20
2017-09-19T13:39:21.363Z,59.70
2017-09-19T13:41:49.582Z,60.10
2017-09-19T13:44:17.508Z,58.90
2017-09-19T13:46:45.067Z,59.50
2017-09-19T13:49:12.643Z,59.60
2017-09-19T13:51:40.298Z,59.40
2017-09-19T13:54:07.849Z,58.60
2017-09-19T13:56:35.987Z,57.90
2017-09-19T13:59:04.322Z,57.60
2017-09-19T14:01:31.923Z,57.70
2017-09-19T14:04:00.304Z,58.00
2017-09-19T14:06:27.914Z,58.00
2017-09-19T14:08:55.941Z,57.60
2017-09-19T14:11:24.293Z,58.00
2017-09-19T14:13:52.073Z,58.00
2017-09-19T14:16:19.712Z,57.80
2017-09-19T14:18:47.326Z,58.10
2017-09-19T14:21:15.195Z,57.80
2017-09-19T14:23:43.020Z,58.00
2017-09-19T14:26:10.583Z,57.50
2017-09-19T14:28:38.199Z,58.10
2017-09-19T14:31:05.774Z,57.80
2017-09-19T14:33:33.772Z,57.20
2017-09-19T14:36:02.157Z,57.40
2017-09-19T14:38:29.837Z,57.30
2017-09-19T14:40:57.440Z,58.10
2017-09-19T14:43:24.990Z,57.30
2017-09-19T14:45:53.048Z,58.10
2017-09-19T14:48:20.728Z,57.30
2017-09-19T14:50:48.281Z,57.60
2017-09-19T14:53:15.880Z,58.80
2017-09-19T14:55:43.446Z,57.80
2017-09-19T14:58:11.420Z,58.10
2017-09-19T15:00:39.016Z,58.80
2017-09-19T15:03:06.572Z,59.30
2017-09-19T15:05:34.187Z,59.00
2017-09-19T15:08:01.754Z,59.20
2017-09-19T15:10:29.711Z,59.80
2017-09-19T15:12:57.309Z,59.80
2017-09-19T15:15:24.855Z,59.40
2017-09-19T15:17:53.297Z,60.00
2017-09-19T15:20:21.032Z,60.00
2017-09-19T15:22:49.059Z,60.30
2017-09-19T15:25:16.622Z,60.40
2017-09-19T15:27:44.162Z,60.10
2017-09-19T15:30:11.767Z,59.40
2017-09-19T15:32:39.396Z,60.10
2017-09-19T15:35:08.989Z,60.80
2017-09-19T15:37:36.566Z,60.80
2017-09-19T15:40:04.150Z,59.00
2017-09-19T15:42:32.498Z,60.00
2017-09-19T15:45:00.044Z,60.00
2017-09-19T15:47:27.935Z,60.60
2017-09-19T15:49:55.500Z,60.50
2017-09-19T15:52:23.071Z,60.30
2017-09-19T15:54:50.693Z,60.50
2017-09-19T15:57:18.256Z,60.50
2017-09-19T15:59:46.268Z,60.40
2017-09-19T16:02:14.596Z,60.30
2017-09-19T16:04:42.140Z,60.30
2017-09-19T16:07:10.172Z,60.30
2017-09-19T16:09:37.732Z,59.10
2017-09-19T16:12:06.347Z,59.30
2017-09-19T16:14:33.934Z,59.20
2017-09-19T16:17:01.566Z,59.00
2017-09-19T16:19:29.216Z,59.30
2017-09-19T16:21:56.984Z,59.20
2017-09-19T16:24:24.923Z,59.90
2017-09-19T16:26:53.272Z,60.30
2017-09-19T16:29:20.840Z,60.20
2017-09-19T16:31:48.463Z,60.20
2017-09-19T16:34:16.127Z,60.10
2017-09-19T16:36:44.024Z,60.10
2017-09-19T16:39:11.589Z,60.10
2017-09-19T16:41:39.177Z,60.60
2017-09-19T16:44:07.554Z,60.90
2017-09-19T16:46:35.116Z,60.90
2017-09-19T16:49:03.777Z,61.30
2017-09-19T16:51:31.356Z,61.30
2017-09-19T16:53:58.912Z,61.50
2017-09-19T16:56:27.746Z,61.90
2017-09-19T16:58:55.351Z,61.90
2017-09-19T17:01:23.302Z,62.20
2017-09-19T17:03:50.865Z,62.20
2017-09-19T17:06:18.436Z,62.30
2017-09-19T17:08:46.636Z,62.40
2017-09-19T17:11:14.190Z,62.50
2017-09-19T17:13:42.850Z,62.90
2017-09-19T17:16:10.444Z,62.90
2017-09-19T17:18:38.083Z,63.10
2017-09-19T17:21:05.699Z,63.40
2017-09-19T17:23:33.263Z,63.80
2017-09-19T17:26:01.155Z,63.70
2017-09-19T17:28:28.736Z,63.60
2017-09-19T17:30:56.378Z,63.60
2017-09-19T17:33:23.964Z,63.60
2017-09-19T17:35:52.300Z,63.80
2017-09-19T17:38:20.163Z,63.80
2017-09-19T17:40:47.710Z,64.00
2017-09-19T17:43:16.328Z,64.40
2017-09-19T17:45:43.916Z,64.70
2017-09-19T17:48:12.329Z,65.20
2017-09-19T17:50:40.435Z,65.10
2017-09-19T17:53:08.300Z,65.30
2017-09-19T17:55:35.897Z,65.40
2017-09-19T17:58:03.540Z,65.30
2017-09-19T18:00:31.388Z,65.40
2017-09-19T18:02:59.561Z,65.40
2017-09-19T18:05:27.186Z,65.50
2017-09-19T18:07:54.767Z,65.90
2017-09-19T18:10:22.380Z,65.90
2017-09-19T18:12:50.750Z,66.00
2017-09-19T18:15:18.708Z,66.00
2017-09-19T18:17:46.336Z,66.10
2017-09-19T18:20:13.989Z,66.20
2017-09-19T18:22:41.617Z,66.40
2017-09-19T18:25:09.200Z,66.40
2017-09-19T18:27:37.232Z,66.40
2017-09-19T18:30:04.797Z,66.60
2017-09-19T18:32:32.380Z,66.60
2017-09-19T18:35:00.800Z,66.80
2017-09-19T18:37:28.377Z,67.10
2017-09-19T18:39:56.552Z,67.40
2017-09-19T18:42:24.166Z,67.40
2017-09-19T18:44:51.739Z,67.40
2017-09-19T18:47:19.363Z,67.40
2017-09-19T18:49:46.943Z,67.40
2017-09-19T18:52:14.999Z,67.30
2017-09-19T18:54:42.554Z,67.50
2017-09-19T18:57:10.959Z,67.70
2017-09-19T18:59:38.573Z,67.70
2017-09-19T19:02:06.243Z,67.90
2017-09-19T19:04:34.238Z,68.00
2017-09-19T19:07:01.814Z,68.10
2017-09-19T19:09:29.488Z,68.20
2017-09-19T19:11:57.112Z,68.20
2017-09-19T19:14:24.719Z,68.40
2017-09-19T19:16:52.717Z,68.50
2017-09-19T19:19:20.352Z,68.50
2017-09-19T19:21:47.935Z,69.10
2017-09-19T19:24:15.622Z,68.70
2017-09-19T19:26:43.187Z,68.90
2017-09-19T19:29:11.406Z,69.10
2017-09-19T19:31:38.979Z,69.10
2017-09-19T19:34:06.536Z,69.40
2017-09-19T19:36:34.166Z,69.70
2017-09-19T19:39:01.767Z,69.80
2017-09-19T19:41:30.731Z,69.80
2017-09-19T19:43:58.320Z,69.90
2017-09-19T19:46:25.877Z,70.00
2017-09-19T19:48:53.629Z,70.10
2017-09-19T19:51:21.435Z,70.30
2017-09-19T19:53:50.122Z,70.50
2017-09-19T19:56:17.718Z,70.40
2017-09-19T19:58:45.287Z,70.50
2017-09-19T20:01:12.898Z,70.50
2017-09-19T20:03:41.264Z,71.00
2017-09-19T20:06:09.223Z,71.00
2017-09-19T20:08:36.830Z,71.00
2017-09-19T20:11:05.077Z,71.40
2017-09-19T20:13:32.698Z,71.40
2017-09-19T20:16:00.278Z,71.40
2017-09-19T20:18:28.616Z,71.40
2017-09-19T20:20:56.222Z,71.40
2017-09-19T20:23:23.801Z,71.40
2017-09-19T20:25:51.740Z,71.40
2017-09-19T20:28:19.328Z,71.40
2017-09-19T20:30:47.254Z,71.30
2017-09-19T20:33:14.806Z,71.20
2017-09-19T20:35:42.371Z,71.70
2017-09-19T20:38:10.156Z,71.90
2017-09-19T20:40:37.727Z,71.80
2017-09-19T20:43:06.392Z,72.10
2017-09-19T20:45:33.955Z,72.10
2017-09-19T20:48:02.289Z,72.20
2017-09-19T20:50:29.963Z,72.20
2017-09-19T20:52:57.527Z,72.40
2017-09-19T20:55:25.564Z,72.40
2017-09-19T20:57:53.140Z,72.30
2017-09-19T21:00:20.808Z,72.40
2017-09-19T21:02:48.053Z,72.50
2017-09-19T21:05:21.247Z,72.60
2017-09-19T21:07:54.608Z,72.60
2017-09-19T21:10:27.855Z,72.60
2017-09-19T21:13:01.068Z,72.40
2017-09-19T21:15:34.280Z,72.50
2017-09-19T21:18:08.331Z,72.60
2017-09-19T21:20:35.456Z,72.50
2017-09-19T21:23:03.066Z,72.80
2017-09-19T21:25:30.643Z,72.90
2017-09-19T21:27:58.533Z,72.90
2017-09-19T21:30:26.864Z,73.10
2017-09-19T21:32:54.435Z,73.10
2017-09-19T21:35:22.052Z,73.20
2017-09-19T21:37:49.630Z,73.20
2017-09-19T21:40:17.483Z,73.30
2017-09-19T21:42:45.081Z,73.20
2017-09-19T21:45:12.684Z,73.10
2017-09-19T21:47:40.378Z,73.20
2017-09-19T21:50:08.034Z,73.20
2017-09-19T21:52:36.044Z,73.30
2017-09-19T21:55:03.782Z,73.20
2017-09-19T21:57:31.597Z,73.10
2017-09-19T21:59:59.805Z,73.20
2017-09-19T22:02:27.388Z,73.30
2017-09-19T22:04:55.323Z,73.20
2017-09-19T22:07:22.972Z,73.20
2017-09-19T22:09:51.301Z,73.60
2017-09-19T22:12:18.906Z,73.50
2017-09-19T22:14:47.232Z,73.60
2017-09-19T22:17:15.238Z,73.50
2017-09-19T22:19:42.790Z,73.80
2017-09-19T22:22:11.865Z,73.60
2017-09-19T22:24:39.477Z,73.60
2017-09-19T22:27:07.135Z,73.90
2017-09-19T22:29:35.771Z,73.90
2017-09-19T22:32:03.308Z,73.90
2017-09-19T22:34:30.910Z,74.00
2017-09-19T22:36:58.563Z,73.80
2017-09-19T22:39:26.112Z,74.00
2017-09-19T22:41:54.100Z,73.70
2017-09-19T22:44:21.672Z,73.90
2017-09-19T22:46:49.384Z,74.00
2017-09-19T22:49:16.991Z,74.00
2017-09-19T22:51:44.553Z,74.10
2017-09-19T22:54:12.626Z,74.00
2017-09-19T22:56:40.959Z,73.60
2017-09-19T22:59:08.522Z,74.00
2017-09-19T23:01:36.140Z,74.10
2017-09-19T23:04:03.697Z,74.20
2017-09-19T23:06:31.825Z,74.20
2017-09-19T23:09:00.148Z,74.30
2017-09-19T23:11:27.719Z,74.20
2017-09-19T23:13:55.327Z,74.40
2017-09-19T23:16:22.889Z,74.40
2017-09-19T23:18:51.538Z,74.30
2017-09-19T23:21:19.090Z,74.30
2017-09-19T23:23:46.654Z,74.40
2017-09-19T23:26:14.371Z,74.40
2017-09-19T23:28:41.932Z,74.40
2017-09-19T23:31:09.848Z,74.40
2017-09-19T23:33:37.424Z,74.50
2017-09-19T23:36:04.982Z,74.50
2017-09-19T23:38:32.594Z,74.40
2017-09-19T23:41:00.304Z,74.50
2017-09-19T23:43:29.120Z,74.60
2017-09-19T23:45:56.692Z,74.50
2017-09-19T23:48:24.250Z,74.60
2017-09-19T23:50:51.866Z,74.60
2017-09-19T23:53:19.432Z,74.50
2017-09-19T23:55:47.506Z,74.60
2017-09-19T23:58:15.100Z,74.50
